Rosebud, New Mexico
Current Conditions -  °F | °C
As of 1:53 AM on Sunday 23 Nov 2014 (Local Time) from KDHT Reporting Station
Clear Clear  
Wind Chill: 40°   Ceiling: Unl
Heat Index: 47°   Visibility: 10mi
Dew Point: 21°   Wind: 16mph
Humidity: 36%   Direction: 290°WNW
Pressure: 29.51"   Gusts: NA
Location:  35.8947°N, 103.215°W
Report Text: KDHT 230853Z AUTO 29014KT 10SM CLR 08/M06 A2951 RMK AO2 SLP955 T00831061 56016
Loading
Personal Weather Stations






























Interactive Weather Map New forecast layout! Learn more

10-Day Weather Forecast

Advertisements
Track Severe Weather on mobile